Time,TemperatureF,DewpointF,PressureIn,WindDirection,WindDirectionDegrees,WindSpeedMPH,WindSpeedGustMPH,Humidity,HourlyPrecipIn,Conditions,Clouds,dailyrainin,SolarRadiationWatts/m^2,SoftwareType,DateUTC
2013-01-03 00:02:00,18.0,-16.0,-100.00,WSW,243,5.0,9.0,20,0.00,,,0.00,0.000000,,2013-01-03 07:02:00,
2013-01-03 00:12:00,18.0,-16.0,-100.00,WSW,243,5.0,9.0,20,0.00,,,0.00,0.000000,,2013-01-03 07:12:00,
2013-01-03 00:22:00,18.0,-16.0,-100.00,WSW,243,5.0,9.0,20,0.00,,,0.00,0.000000,,2013-01-03 07:22:00,
2013-01-03 00:32:00,18.0,-16.0,-100.00,WSW,243,5.0,9.0,20,0.00,,,0.00,0.000000,,2013-01-03 07:32:00,
2013-01-03 00:40:00,19.0,-16.0,-100.00,SW,214,6.0,12.0,19,0.00,,,0.00,0.000000,,2013-01-03 07:40:00,
2013-01-03 01:02:00,19.0,-16.0,-100.00,SW,214,6.0,12.0,19,0.00,,,0.00,0.000000,,2013-01-03 08:02:00,
2013-01-03 01:12:00,19.0,-16.0,-100.00,SW,214,6.0,12.0,19,0.00,,,0.00,0.000000,,2013-01-03 08:12:00,
2013-01-03 01:22:00,19.0,-16.0,-100.00,SW,214,6.0,12.0,19,0.00,,,0.00,0.000000,,2013-01-03 08:22:00,
2013-01-03 01:32:00,19.0,-16.0,-100.00,SW,214,6.0,12.0,19,0.00,,,0.00,0.000000,,2013-01-03 08:32:00,
2013-01-03 01:40:00,17.0,-19.0,-100.00,South,184,2.0,8.0,18,-99.99,,,0.00,0.000000,,2013-01-03 08:40:00,
2013-01-03 02:02:00,17.0,-19.0,-100.00,South,184,2.0,8.0,18,-99.99,,,0.00,0.000000,,2013-01-03 09:02:00,
2013-01-03 02:12:00,17.0,-19.0,-100.00,South,184,2.0,8.0,18,-99.99,,,0.00,0.000000,,2013-01-03 09:12:00,
2013-01-03 02:22:00,17.0,-19.0,-100.00,South,184,2.0,8.0,18,-99.99,,,0.00,0.000000,,2013-01-03 09:22:00,
2013-01-03 02:33:00,17.0,-19.0,-100.00,South,184,2.0,8.0,18,-99.99,,,0.00,0.000000,,2013-01-03 09:33:00,
2013-01-03 03:02:00,20.0,-20.0,-100.00,SW,232,3.0,9.0,15,-99.99,,,0.00,0.000000,,2013-01-03 10:02:00,
2013-01-03 03:12:00,20.0,-20.0,-100.00,SW,232,3.0,9.0,15,-99.99,,,0.00,0.000000,,2013-01-03 10:12:00,
2013-01-03 03:22:00,20.0,-20.0,-100.00,SW,232,3.0,9.0,15,-99.99,,,0.00,0.000000,,2013-01-03 10:22:00,
2013-01-03 03:32:00,20.0,-20.0,-100.00,SW,232,3.0,9.0,15,-99.99,,,0.00,0.000000,,2013-01-03 10:32:00,
2013-01-03 04:02:00,23.0,-20.0,-100.00,West,265,7.0,11.0,13,-99.99,,,-99.99,0.000000,,2013-01-03 11:02:00,
2013-01-03 04:12:00,23.0,-20.0,-100.00,West,265,7.0,11.0,13,-99.99,,,-99.99,0.000000,,2013-01-03 11:12:00,
2013-01-03 04:22:00,23.0,-20.0,-100.00,West,265,7.0,11.0,13,-99.99,,,-99.99,0.000000,,2013-01-03 11:22:00,
2013-01-03 04:33:00,23.0,-20.0,-100.00,West,265,7.0,11.0,13,-99.99,,,-99.99,0.000000,,2013-01-03 11:33:00,
2013-01-03 05:02:00,25.0,-28.0,-100.00,SW,221,4.0,12.0,8,-99.99,,,0.00,0.000000,,2013-01-03 12:02:00,
2013-01-03 06:02:00,25.0,-33.0,-100.00,WNW,282,0.0,7.0,6,-99.99,,,0.00,0.000000,,2013-01-03 13:02:00,
2013-01-03 07:02:00,26.0,-36.0,-100.00,WSW,238,0.0,5.0,5,-99.99,,,-99.99,0.000000,,2013-01-03 14:02:00,
2013-01-03 08:02:00,27.0,-32.0,-100.00,SW,223,6.0,9.0,6,-99.99,,,0.00,0.000000,,2013-01-03 15:02:00,
2013-01-03 09:03:00,30.0,-29.0,-100.00,SW,222,8.0,14.0,6,-99.99,,,0.00,11.000000,,2013-01-03 16:03:00,
2013-01-03 10:03:00,35.0,-20.0,-100.00,SSW,209,7.0,14.0,8,-99.99,,,0.00,118.000000,,2013-01-03 17:03:00,
2013-01-03 11:03:00,45.0,-15.0,-100.00,NNE,33,1.0,11.0,7,-99.99,,,0.00,348.000000,,2013-01-03 18:03:00,
2013-01-03 12:03:00,50.0,-9.0,-100.00,NNE,30,1.0,3.0,8,-99.99,,,0.02,448.000000,,2013-01-03 19:03:00,
2013-01-03 13:02:00,50.0,4.0,-100.00,West,267,5.0,8.0,15,-99.99,,,0.04,506.000000,,2013-01-03 20:02:00,
2013-01-03 14:02:00,48.0,3.0,-100.00,SW,231,5.0,11.0,15,-99.99,,,0.04,488.000000,,2013-01-03 21:02:00,
2013-01-03 15:02:00,44.0,3.0,-100.00,SW,224,6.0,14.0,18,-99.99,,,0.04,407.000000,,2013-01-03 22:02:00,
2013-01-03 15:12:00,44.0,3.0,-100.00,SW,224,6.0,14.0,18,-99.99,,,0.04,407.000000,,2013-01-03 22:12:00,
2013-01-03 15:22:00,44.0,3.0,-100.00,SW,224,6.0,14.0,18,-99.99,,,0.04,407.000000,,2013-01-03 22:22:00,
2013-01-03 15:32:00,44.0,3.0,-100.00,SW,224,6.0,14.0,18,-99.99,,,0.04,407.000000,,2013-01-03 22:32:00,
2013-01-03 16:02:00,42.0,4.0,-100.00,SW,230,7.0,11.0,20,-99.99,,,0.04,213.000000,,2013-01-03 23:02:00,
2013-01-03 16:12:00,42.0,4.0,-100.00,SW,230,7.0,11.0,20,-99.99,,,0.04,213.000000,,2013-01-03 23:12:00,
2013-01-03 16:22:00,42.0,4.0,-100.00,SW,230,7.0,11.0,20,-99.99,,,0.04,213.000000,,2013-01-03 23:22:00,
2013-01-03 16:32:00,42.0,4.0,-100.00,SW,230,7.0,11.0,20,-99.99,,,0.04,213.000000,,2013-01-03 23:32:00,
2013-01-03 16:40:00,33.0,2.0,-100.00,WNW,285,0.0,10.0,26,-99.99,,,0.04,50.000000,,2013-01-03 23:40:00,
2013-01-03 17:03:00,33.0,2.0,-100.00,WNW,285,0.0,10.0,26,-99.99,,,0.04,50.000000,,2013-01-04 00:03:00,
2013-01-03 17:12:00,33.0,2.0,-100.00,WNW,285,0.0,10.0,26,-99.99,,,0.04,50.000000,,2013-01-04 00:12:00,
2013-01-03 17:22:00,33.0,2.0,-100.00,WNW,285,0.0,10.0,26,-99.99,,,0.04,50.000000,,2013-01-04 00:22:00,
2013-01-03 17:32:00,33.0,2.0,-100.00,WNW,285,0.0,10.0,26,-99.99,,,0.04,50.000000,,2013-01-04 00:32:00,
2013-01-03 18:02:00,32.0,4.0,-100.00,NW,307,1.0,4.0,30,0.00,,,0.04,1.000000,,2013-01-04 01:02:00,
2013-01-03 18:12:00,32.0,4.0,-100.00,NW,307,1.0,4.0,30,0.00,,,0.04,1.000000,,2013-01-04 01:12:00,
2013-01-03 18:22:00,32.0,4.0,-100.00,NW,307,1.0,4.0,30,0.00,,,0.04,1.000000,,2013-01-04 01:22:00,
2013-01-03 18:32:00,32.0,4.0,-100.00,NW,307,1.0,4.0,30,0.00,,,0.04,1.000000,,2013-01-04 01:32:00,
2013-01-03 19:02:00,32.0,5.0,-100.00,WSW,249,2.0,6.0,31,-99.99,,,0.04,0.000000,,2013-01-04 02:02:00,
2013-01-03 19:12:00,32.0,5.0,-100.00,WSW,249,2.0,6.0,31,-99.99,,,0.04,0.000000,,2013-01-04 02:12:00,
2013-01-03 19:22:00,32.0,5.0,-100.00,WSW,249,2.0,6.0,31,-99.99,,,0.04,0.000000,,2013-01-04 02:22:00,
2013-01-03 19:32:00,32.0,5.0,-100.00,WSW,249,2.0,6.0,31,-99.99,,,0.04,0.000000,,2013-01-04 02:32:00,
2013-01-03 20:02:00,32.0,6.0,-100.00,West,265,5.0,9.0,32,-99.99,,,0.04,0.000000,,2013-01-04 03:02:00,
2013-01-03 20:12:00,32.0,6.0,-100.00,West,265,5.0,9.0,32,-99.99,,,0.04,0.000000,,2013-01-04 03:12:00,
2013-01-03 20:22:00,32.0,6.0,-100.00,West,265,5.0,9.0,32,-99.99,,,0.04,0.000000,,2013-01-04 03:22:00,
2013-01-03 20:32:00,32.0,6.0,-100.00,West,265,5.0,9.0,32,-99.99,,,0.04,0.000000,,2013-01-04 03:32:00,
2013-01-03 21:02:00,31.0,3.0,-100.00,West,259,4.0,9.0,29,-99.99,,,0.04,0.000000,,2013-01-04 04:02:00,
2013-01-03 21:12:00,31.0,3.0,-100.00,West,259,4.0,9.0,29,-99.99,,,0.04,0.000000,,2013-01-04 04:12:00,
2013-01-03 21:22:00,31.0,3.0,-100.00,West,259,4.0,9.0,29,-99.99,,,0.04,0.000000,,2013-01-04 04:22:00,
2013-01-03 21:32:00,31.0,3.0,-100.00,West,259,4.0,9.0,29,-99.99,,,0.04,0.000000,,2013-01-04 04:32:00,
2013-01-03 22:03:00,31.0,1.0,-100.00,SW,229,3.0,12.0,27,-99.99,,,0.04,0.000000,,2013-01-04 05:03:00,
2013-01-03 22:12:00,31.0,1.0,-100.00,SW,229,3.0,12.0,27,-99.99,,,0.04,0.000000,,2013-01-04 05:12:00,
2013-01-03 22:22:00,31.0,1.0,-100.00,SW,229,3.0,12.0,27,-99.99,,,0.04,0.000000,,2013-01-04 05:22:00,
2013-01-03 22:33:00,31.0,1.0,-100.00,SW,229,3.0,12.0,27,-99.99,,,0.04,0.000000,,2013-01-04 05:33:00,
2013-01-03 23:02:00,31.0,3.0,-100.00,West,261,4.0,9.0,30,-99.99,,,0.04,0.000000,,2013-01-04 06:02:00,
2013-01-03 23:12:00,31.0,3.0,-100.00,West,261,4.0,9.0,30,-99.99,,,0.04,0.000000,,2013-01-04 06:12:00,
2013-01-03 23:22:00,31.0,3.0,-100.00,West,261,4.0,9.0,30,-99.99,,,0.04,0.000000,,2013-01-04 06:22:00,
2013-01-03 23:32:00,31.0,3.0,-100.00,West,261,4.0,9.0,30,-99.99,,,0.04,0.000000,,2013-01-04 06:32:00,